sensor_id;sensor_type;location;lat;lon;timestamp;P1;durP1;ratioP1;P2;durP2;ratioP2
77748;SDS011;66938;52.084;5.228;2023-03-14T00:01:27;25.8;;;7.7;;
77748;SDS011;66938;52.084;5.228;2023-03-14T00:03:03;25.5;;;7.1;;
77748;SDS011;66938;52.084;5.228;2023-03-14T00:04:39;25.4;;;6.7;;
77748;SDS011;66938;52.084;5.228;2023-03-14T00:07:52;21.1;;;5.9;;
77748;SDS011;66938;52.084;5.228;2023-03-14T00:09:29;24.9;;;6.5;;
77748;SDS011;66938;52.084;5.228;2023-03-14T00:11:06;24.4;;;6.7;;
77748;SDS011;66938;52.084;5.228;2023-03-14T00:12:43;23.4;;;6.6;;
77748;SDS011;66938;52.084;5.228;2023-03-14T00:16:01;27.0;;;7.6;;
77748;SDS011;66938;52.084;5.228;2023-03-14T00:17:38;24.4;;;7.2;;
77748;SDS011;66938;52.084;5.228;2023-03-14T00:19:14;25.1;;;6.7;;
77748;SDS011;66938;52.084;5.228;2023-03-14T00:22:28;22.7;;;6.3;;
77748;SDS011;66938;52.084;5.228;2023-03-14T00:24:06;24.7;;;6.5;;
77748;SDS011;66938;52.084;5.228;2023-03-14T00:25:43;22.3;;;5.8;;
77748;SDS011;66938;52.084;5.228;2023-03-14T00:27:19;20.11;;;5.7;;
77748;SDS011;66938;52.084;5.228;2023-03-14T00:30:31;19.7;;;5.3;;
77748;SDS011;66938;52.084;5.228;2023-03-14T00:32:07;17.3;;;5.0;;
77748;SDS011;66938;52.084;5.228;2023-03-14T00:33:44;17.41;;;4.5;;
77748;SDS011;66938;52.084;5.228;2023-03-14T00:36:57;17.2;;;4.7;;
77748;SDS011;66938;52.084;5.228;2023-03-14T00:38:33;17.61;;;4.8;;
77748;SDS011;66938;52.084;5.228;2023-03-14T00:40:09;14.6;;;3.8;;
77748;SDS011;66938;52.084;5.228;2023-03-14T00:43:22;14.4;;;3.8;;
77748;SDS011;66938;52.084;5.228;2023-03-14T00:44:59;13.3;;;3.7;;
77748;SDS011;66938;52.084;5.228;2023-03-14T00:46:35;12.0;;;2.8;;
77748;SDS011;66938;52.084;5.228;2023-03-14T00:48:11;13.3;;;2.9;;
77748;SDS011;66938;52.084;5.228;2023-03-14T00:51:24;14.4;;;3.2;;
77748;SDS011;66938;52.084;5.228;2023-03-14T00:53:00;14.4;;;3.5;;
77748;SDS011;66938;52.084;5.228;2023-03-14T00:54:36;13.4;;;3.1;;
77748;SDS011;66938;52.084;5.228;2023-03-14T00:57:49;13.3;;;3.2;;
77748;SDS011;66938;52.084;5.228;2023-03-14T00:59:25;15.5;;;3.7;;
77748;SDS011;66938;52.084;5.228;2023-03-14T01:01:05;15.8;;;3.6;;
77748;SDS011;66938;52.084;5.228;2023-03-14T01:04:20;12.8;;;3.6;;
77748;SDS011;66938;52.084;5.228;2023-03-14T01:06:05;12.9;;;3.5;;
77748;SDS011;66938;52.084;5.228;2023-03-14T01:07:42;12.1;;;3.4;;
77748;SDS011;66938;52.084;5.228;2023-03-14T01:09:18;12.7;;;3.6;;
77748;SDS011;66938;52.084;5.228;2023-03-14T01:12:30;15.5;;;3.6;;
77748;SDS011;66938;52.084;5.228;2023-03-14T01:14:06;12.7;;;3.5;;
77748;SDS011;66938;52.084;5.228;2023-03-14T01:15:43;13.6;;;3.3;;
77748;SDS011;66938;52.084;5.228;2023-03-14T01:18:55;13.6;;;3.3;;
77748;SDS011;66938;52.084;5.228;2023-03-14T01:20:31;14.7;;;3.8;;
77748;SDS011;66938;52.084;5.228;2023-03-14T01:22:08;10.8;;;3.2;;
77748;SDS011;66938;52.084;5.228;2023-03-14T01:23:45;11.2;;;3.6;;
77748;SDS011;66938;52.084;5.228;2023-03-14T01:26:57;13.4;;;3.6;;
77748;SDS011;66938;52.084;5.228;2023-03-14T01:28:34;10.7;;;3.3;;
77748;SDS011;66938;52.084;5.228;2023-03-14T01:30:11;13.1;;;3.6;;
77748;SDS011;66938;52.084;5.228;2023-03-14T01:33:25;11.1;;;3.4;;
77748;SDS011;66938;52.084;5.228;2023-03-14T01:35:01;11.3;;;3.7;;
77748;SDS011;66938;52.084;5.228;2023-03-14T01:36:38;13.1;;;3.8;;
77748;SDS011;66938;52.084;5.228;2023-03-14T01:39:50;13.8;;;4.0;;
77748;SDS011;66938;52.084;5.228;2023-03-14T01:41:26;12.8;;;3.5;;
77748;SDS011;66938;52.084;5.228;2023-03-14T01:43:06;11.0;;;3.5;;
77748;SDS011;66938;52.084;5.228;2023-03-14T01:44:51;13.0;;;3.6;;
77748;SDS011;66938;52.084;5.228;2023-03-14T01:48:12;13.4;;;3.6;;
77748;SDS011;66938;52.084;5.228;2023-03-14T01:49:49;14.5;;;3.2;;
77748;SDS011;66938;52.084;5.228;2023-03-14T01:51:30;13.1;;;3.4;;
77748;SDS011;66938;52.084;5.228;2023-03-14T01:53:12;10.5;;;2.7;;
77748;SDS011;66938;52.084;5.228;2023-03-14T01:56:29;13.4;;;3.2;;
77748;SDS011;66938;52.084;5.228;2023-03-14T01:58:07;14.4;;;2.8;;
77748;SDS011;66938;52.084;5.228;2023-03-14T01:59:46;14.1;;;3.1;;
77748;SDS011;66938;52.084;5.228;2023-03-14T02:01:26;12.6;;;2.8;;
77748;SDS011;66938;52.084;5.228;2023-03-14T02:04:49;13.1;;;3.0;;
77748;SDS011;66938;52.084;5.228;2023-03-14T02:06:29;15.0;;;2.8;;
77748;SDS011;66938;52.084;5.228;2023-03-14T02:08:13;11.8;;;2.6;;
77748;SDS011;66938;52.084;5.228;2023-03-14T02:09:53;12.5;;;3.0;;
77748;SDS011;66938;52.084;5.228;2023-03-14T02:13:09;14.7;;;3.2;;
77748;SDS011;66938;52.084;5.228;2023-03-14T02:14:47;12.9;;;2.8;;
77748;SDS011;66938;52.084;5.228;2023-03-14T02:16:23;14.0;;;3.1;;
77748;SDS011;66938;52.084;5.228;2023-03-14T02:19:43;12.8;;;2.8;;
77748;SDS011;66938;52.084;5.228;2023-03-14T02:21:36;13.8;;;3.0;;
77748;SDS011;66938;52.084;5.228;2023-03-14T02:23:26;12.6;;;3.0;;
77748;SDS011;66938;52.084;5.228;2023-03-14T02:25:11;10.7;;;3.0;;
77748;SDS011;66938;52.084;5.228;2023-03-14T02:27:24;11.7;;;2.8;;
77748;SDS011;66938;52.084;5.228;2023-03-14T02:29:01;11.0;;;2.6;;
77748;SDS011;66938;52.084;5.228;2023-03-14T02:32:14;9.4;;;2.6;;
77748;SDS011;66938;52.084;5.228;2023-03-14T02:33:53;9.71;;;2.4;;
77748;SDS011;66938;52.084;5.228;2023-03-14T02:35:33;11.5;;;2.8;;
77748;SDS011;66938;52.084;5.228;2023-03-14T02:37:16;11.6;;;2.7;;
77748;SDS011;66938;52.084;5.228;2023-03-14T02:40:42;7.8;;;2.4;;
77748;SDS011;66938;52.084;5.228;2023-03-14T02:42:19;10.8;;;2.8;;
77748;SDS011;66938;52.084;5.228;2023-03-14T02:43:57;9.71;;;2.7;;
77748;SDS011;66938;52.084;5.228;2023-03-14T02:45:39;11.6;;;2.7;;
77748;SDS011;66938;52.084;5.228;2023-03-14T02:48:59;10.4;;;3.1;;
77748;SDS011;66938;52.084;5.228;2023-03-14T02:50:40;10.21;;;2.7;;
77748;SDS011;66938;52.084;5.228;2023-03-14T02:52:17;9.71;;;2.7;;
77748;SDS011;66938;52.084;5.228;2023-03-14T02:53:53;9.1;;;2.9;;
77748;SDS011;66938;52.084;5.228;2023-03-14T02:57:05;10.5;;;2.8;;
77748;SDS011;66938;52.084;5.228;2023-03-14T02:58:41;9.31;;;2.5;;
77748;SDS011;66938;52.084;5.228;2023-03-14T03:00:18;11.4;;;3.4;;
77748;SDS011;66938;52.084;5.228;2023-03-14T03:03:31;10.5;;;2.9;;
77748;SDS011;66938;52.084;5.228;2023-03-14T03:05:07;10.4;;;3.0;;
77748;SDS011;66938;52.084;5.228;2023-03-14T03:06:43;11.4;;;3.0;;
77748;SDS011;66938;52.084;5.228;2023-03-14T03:08:20;12.9;;;3.5;;
77748;SDS011;66938;52.084;5.228;2023-03-14T03:11:33;13.6;;;3.6;;
77748;SDS011;66938;52.084;5.228;2023-03-14T03:13:09;11.6;;;2.8;;
77748;SDS011;66938;52.084;5.228;2023-03-14T03:14:45;10.5;;;3.0;;
77748;SDS011;66938;52.084;5.228;2023-03-14T03:17:58;10.0;;;3.5;;
77748;SDS011;66938;52.084;5.228;2023-03-14T03:19:34;11.0;;;3.1;;
77748;SDS011;66938;52.084;5.228;2023-03-14T03:21:11;10.5;;;3.3;;
77748;SDS011;66938;52.084;5.228;2023-03-14T03:24:23;12.3;;;3.5;;
77748;SDS011;66938;52.084;5.228;2023-03-14T03:26:00;12.2;;;3.4;;
77748;SDS011;66938;52.084;5.228;2023-03-14T03:27:36;11.6;;;3.2;;
77748;SDS011;66938;52.084;5.228;2023-03-14T03:29:13;12.9;;;3.3;;
77748;SDS011;66938;52.084;5.228;2023-03-14T03:32:26;13.6;;;3.4;;
77748;SDS011;66938;52.084;5.228;2023-03-14T03:34:03;13.4;;;3.5;;
77748;SDS011;66938;52.084;5.228;2023-03-14T03:35:43;10.7;;;3.2;;
77748;SDS011;66938;52.084;5.228;2023-03-14T03:38:56;11.5;;;3.4;;
77748;SDS011;66938;52.084;5.228;2023-03-14T03:40:32;11.1;;;3.8;;
77748;SDS011;66938;52.084;5.228;2023-03-14T03:42:08;13.6;;;3.5;;
77748;SDS011;66938;52.084;5.228;2023-03-14T03:45:21;11.3;;;3.6;;
77748;SDS011;66938;52.084;5.228;2023-03-14T03:46:57;14.0;;;3.6;;
77748;SDS011;66938;52.084;5.228;2023-03-14T03:48:33;14.1;;;3.8;;
77748;SDS011;66938;52.084;5.228;2023-03-14T03:50:10;13.5;;;3.9;;
77748;SDS011;66938;52.084;5.228;2023-03-14T03:53:22;11.5;;;3.6;;
77748;SDS011;66938;52.084;5.228;2023-03-14T03:54:58;13.1;;;3.5;;
77748;SDS011;66938;52.084;5.228;2023-03-14T03:56:35;11.9;;;3.2;;
77748;SDS011;66938;52.084;5.228;2023-03-14T03:59:47;12.6;;;3.6;;
77748;SDS011;66938;52.084;5.228;2023-03-14T04:01:23;13.7;;;3.0;;
77748;SDS011;66938;52.084;5.228;2023-03-14T04:02:59;14.7;;;3.4;;
77748;SDS011;66938;52.084;5.228;2023-03-14T04:06:12;11.2;;;3.0;;
77748;SDS011;66938;52.084;5.228;2023-03-14T04:07:48;13.7;;;3.5;;
77748;SDS011;66938;52.084;5.228;2023-03-14T04:09:25;12.1;;;3.4;;
77748;SDS011;66938;52.084;5.228;2023-03-14T04:12:39;11.8;;;3.3;;
77748;SDS011;66938;52.084;5.228;2023-03-14T04:14:15;13.3;;;3.4;;
77748;SDS011;66938;52.084;5.228;2023-03-14T04:15:51;11.6;;;3.1;;
77748;SDS011;66938;52.084;5.228;2023-03-14T04:17:28;14.9;;;3.6;;
77748;SDS011;66938;52.084;5.228;2023-03-14T04:20:40;13.1;;;3.2;;
77748;SDS011;66938;52.084;5.228;2023-03-14T04:22:17;16.2;;;3.8;;
77748;SDS011;66938;52.084;5.228;2023-03-14T04:23:53;10.4;;;2.8;;
77748;SDS011;66938;52.084;5.228;2023-03-14T04:27:06;11.4;;;3.3;;
77748;SDS011;66938;52.084;5.228;2023-03-14T04:28:42;12.2;;;3.1;;
77748;SDS011;66938;52.084;5.228;2023-03-14T04:30:19;11.1;;;3.1;;
77748;SDS011;66938;52.084;5.228;2023-03-14T04:33:31;11.0;;;3.1;;
77748;SDS011;66938;52.084;5.228;2023-03-14T04:35:08;10.9;;;2.9;;
77748;SDS011;66938;52.084;5.228;2023-03-14T04:36:44;12.3;;;3.5;;
77748;SDS011;66938;52.084;5.228;2023-03-14T04:38:20;13.8;;;3.5;;
77748;SDS011;66938;52.084;5.228;2023-03-14T04:41:32;11.3;;;2.9;;
77748;SDS011;66938;52.084;5.228;2023-03-14T04:43:09;9.71;;;2.8;;
77748;SDS011;66938;52.084;5.228;2023-03-14T04:44:46;9.9;;;2.9;;
77748;SDS011;66938;52.084;5.228;2023-03-14T04:47:59;12.0;;;3.1;;
77748;SDS011;66938;52.084;5.228;2023-03-14T04:49:35;11.4;;;3.1;;
77748;SDS011;66938;52.084;5.228;2023-03-14T04:51:11;10.0;;;3.2;;
77748;SDS011;66938;52.084;5.228;2023-03-14T04:54:23;10.9;;;3.1;;
77748;SDS011;66938;52.084;5.228;2023-03-14T04:55:59;12.6;;;3.3;;
77748;SDS011;66938;52.084;5.228;2023-03-14T04:57:36;10.9;;;2.9;;
77748;SDS011;66938;52.084;5.228;2023-03-14T04:59:12;10.9;;;3.5;;
77748;SDS011;66938;52.084;5.228;2023-03-14T05:02:26;10.6;;;3.0;;
77748;SDS011;66938;52.084;5.228;2023-03-14T05:04:02;11.5;;;3.6;;
77748;SDS011;66938;52.084;5.228;2023-03-14T05:05:38;11.0;;;3.3;;
77748;SDS011;66938;52.084;5.228;2023-03-14T05:08:50;9.21;;;2.9;;
77748;SDS011;66938;52.084;5.228;2023-03-14T05:10:26;11.2;;;3.3;;
77748;SDS011;66938;52.084;5.228;2023-03-14T05:12:02;11.2;;;3.4;;
77748;SDS011;66938;52.084;5.228;2023-03-14T05:15:15;9.5;;;3.2;;
77748;SDS011;66938;52.084;5.228;2023-03-14T05:16:51;9.6;;;3.5;;
77748;SDS011;66938;52.084;5.228;2023-03-14T05:18:27;9.6;;;3.2;;
77748;SDS011;66938;52.084;5.228;2023-03-14T05:21:40;10.7;;;3.7;;
77748;SDS011;66938;52.084;5.228;2023-03-14T05:23:16;9.5;;;3.2;;
77748;SDS011;66938;52.084;5.228;2023-03-14T05:24:52;10.1;;;3.6;;
77748;SDS011;66938;52.084;5.228;2023-03-14T05:26:29;10.6;;;3.4;;
77748;SDS011;66938;52.084;5.228;2023-03-14T05:29:42;9.31;;;3.1;;
77748;SDS011;66938;52.084;5.228;2023-03-14T05:31:18;8.1;;;2.9;;
77748;SDS011;66938;52.084;5.228;2023-03-14T05:32:54;9.71;;;3.4;;
77748;SDS011;66938;52.084;5.228;2023-03-14T05:36:07;9.31;;;3.2;;
77748;SDS011;66938;52.084;5.228;2023-03-14T05:37:44;11.1;;;3.6;;
77748;SDS011;66938;52.084;5.228;2023-03-14T05:39:20;10.5;;;3.8;;
77748;SDS011;66938;52.084;5.228;2023-03-14T05:42:33;11.5;;;3.8;;
77748;SDS011;66938;52.084;5.228;2023-03-14T05:44:09;9.71;;;4.2;;
77748;SDS011;66938;52.084;5.228;2023-03-14T05:45:45;10.1;;;4.7;;
77748;SDS011;66938;52.084;5.228;2023-03-14T05:47:21;11.7;;;5.3;;
77748;SDS011;66938;52.084;5.228;2023-03-14T05:50:34;10.9;;;5.3;;
77748;SDS011;66938;52.084;5.228;2023-03-14T05:52:12;12.9;;;6.0;;
77748;SDS011;66938;52.084;5.228;2023-03-14T05:53:48;9.5;;;5.7;;
77748;SDS011;66938;52.084;5.228;2023-03-14T05:57:01;10.5;;;6.5;;
77748;SDS011;66938;52.084;5.228;2023-03-14T05:58:37;10.7;;;7.1;;
77748;SDS011;66938;52.084;5.228;2023-03-14T06:00:13;10.0;;;6.5;;
77748;SDS011;66938;52.084;5.228;2023-03-14T06:03:26;14.1;;;8.1;;
77748;SDS011;66938;52.084;5.228;2023-03-14T06:05:03;14.4;;;8.71;;
77748;SDS011;66938;52.084;5.228;2023-03-14T06:06:41;11.0;;;7.6;;
77748;SDS011;66938;52.084;5.228;2023-03-14T06:08:17;10.8;;;7.9;;
77748;SDS011;66938;52.084;5.228;2023-03-14T06:11:29;14.5;;;8.4;;
77748;SDS011;66938;52.084;5.228;2023-03-14T06:13:05;11.9;;;8.81;;
77748;SDS011;66938;52.084;5.228;2023-03-14T06:14:41;13.0;;;8.1;;
77748;SDS011;66938;52.084;5.228;2023-03-14T06:17:53;10.8;;;8.4;;
77748;SDS011;66938;52.084;5.228;2023-03-14T06:19:31;13.5;;;9.1;;
77748;SDS011;66938;52.084;5.228;2023-03-14T06:21:07;12.2;;;8.9;;
77748;SDS011;66938;52.084;5.228;2023-03-14T06:24:20;15.9;;;10.6;;
77748;SDS011;66938;52.084;5.228;2023-03-14T06:25:56;15.7;;;11.2;;
77748;SDS011;66938;52.084;5.228;2023-03-14T06:27:32;14.5;;;11.0;;
77748;SDS011;66938;52.084;5.228;2023-03-14T06:29:09;13.0;;;10.21;;
77748;SDS011;66938;52.084;5.228;2023-03-14T06:32:22;10.7;;;7.7;;
77748;SDS011;66938;52.084;5.228;2023-03-14T06:33:58;7.7;;;4.2;;
77748;SDS011;66938;52.084;5.228;2023-03-14T06:35:35;8.5;;;3.6;;
77748;SDS011;66938;52.084;5.228;2023-03-14T06:38:47;3.9;;;1.7;;
77748;SDS011;66938;52.084;5.228;2023-03-14T06:40:23;4.5;;;1.2;;
77748;SDS011;66938;52.084;5.228;2023-03-14T06:41:59;2.8;;;0.9;;
77748;SDS011;66938;52.084;5.228;2023-03-14T06:45:12;3.6;;;0.7;;
77748;SDS011;66938;52.084;5.228;2023-03-14T06:46:49;3.3;;;1.0;;
77748;SDS011;66938;52.084;5.228;2023-03-14T06:48:25;3.6;;;0.9;;
77748;SDS011;66938;52.084;5.228;2023-03-14T06:51:39;4.0;;;1.11;;
77748;SDS011;66938;52.084;5.228;2023-03-14T06:53:16;2.7;;;0.8;;
77748;SDS011;66938;52.084;5.228;2023-03-14T06:54:52;1.8;;;0.6;;
77748;SDS011;66938;52.084;5.228;2023-03-14T06:56:28;2.6;;;0.7;;
77748;SDS011;66938;52.084;5.228;2023-03-14T06:59:41;3.3;;;0.7;;
77748;SDS011;66938;52.084;5.228;2023-03-14T07:01:20;3.9;;;0.8;;
77748;SDS011;66938;52.084;5.228;2023-03-14T07:02:58;3.2;;;1.0;;
77748;SDS011;66938;52.084;5.228;2023-03-14T07:06:10;3.7;;;1.11;;
77748;SDS011;66938;52.084;5.228;2023-03-14T07:07:46;3.3;;;1.2;;
77748;SDS011;66938;52.084;5.228;2023-03-14T07:09:23;3.3;;;1.2;;
77748;SDS011;66938;52.084;5.228;2023-03-14T07:10:59;2.9;;;1.4;;
77748;SDS011;66938;52.084;5.228;2023-03-14T07:14:11;2.9;;;1.0;;
77748;SDS011;66938;52.084;5.228;2023-03-14T07:15:47;5.9;;;1.3;;
77748;SDS011;66938;52.084;5.228;2023-03-14T07:17:23;4.7;;;1.2;;
77748;SDS011;66938;52.084;5.228;2023-03-14T07:20:36;3.4;;;1.3;;
77748;SDS011;66938;52.084;5.228;2023-03-14T07:22:13;4.2;;;1.4;;
77748;SDS011;66938;52.084;5.228;2023-03-14T07:23:49;4.5;;;1.6;;
77748;SDS011;66938;52.084;5.228;2023-03-14T07:27:02;4.1;;;1.2;;
77748;SDS011;66938;52.084;5.228;2023-03-14T07:28:38;5.9;;;1.4;;
77748;SDS011;66938;52.084;5.228;2023-03-14T07:30:14;4.0;;;1.2;;
77748;SDS011;66938;52.084;5.228;2023-03-14T07:33:26;3.4;;;1.3;;
77748;SDS011;66938;52.084;5.228;2023-03-14T07:35:03;5.6;;;1.4;;
77748;SDS011;66938;52.084;5.228;2023-03-14T07:36:40;5.4;;;1.5;;
77748;SDS011;66938;52.084;5.228;2023-03-14T07:38:16;4.61;;;1.3;;
77748;SDS011;66938;52.084;5.228;2023-03-14T07:41:28;4.91;;;1.4;;
77748;SDS011;66938;52.084;5.228;2023-03-14T07:43:04;6.0;;;1.4;;
77748;SDS011;66938;52.084;5.228;2023-03-14T07:44:41;4.91;;;1.2;;
77748;SDS011;66938;52.084;5.228;2023-03-14T07:47:52;6.1;;;1.4;;
77748;SDS011;66938;52.084;5.228;2023-03-14T07:49:28;5.4;;;1.5;;
77748;SDS011;66938;52.084;5.228;2023-03-14T07:51:05;5.9;;;1.3;;
77748;SDS011;66938;52.084;5.228;2023-03-14T07:54:17;4.8;;;1.3;;
77748;SDS011;66938;52.084;5.228;2023-03-14T07:55:53;3.4;;;0.9;;
77748;SDS011;66938;52.084;5.228;2023-03-14T07:57:29;4.2;;;1.2;;
77748;SDS011;66938;52.084;5.228;2023-03-14T07:59:05;4.5;;;1.4;;
77748;SDS011;66938;52.084;5.228;2023-03-14T08:02:19;4.0;;;1.11;;
77748;SDS011;66938;52.084;5.228;2023-03-14T08:03:55;3.8;;;1.0;;
77748;SDS011;66938;52.084;5.228;2023-03-14T08:05:33;3.1;;;0.9;;
77748;SDS011;66938;52.084;5.228;2023-03-14T08:08:46;5.11;;;1.11;;
77748;SDS011;66938;52.084;5.228;2023-03-14T08:10:22;4.7;;;1.2;;
77748;SDS011;66938;52.084;5.228;2023-03-14T08:11:58;4.8;;;1.3;;
77748;SDS011;66938;52.084;5.228;2023-03-14T08:15:13;4.7;;;1.0;;
77748;SDS011;66938;52.084;5.228;2023-03-14T08:16:49;3.8;;;1.2;;
77748;SDS011;66938;52.084;5.228;2023-03-14T08:18:26;6.0;;;1.11;;
77748;SDS011;66938;52.084;5.228;2023-03-14T08:20:02;4.41;;;1.11;;
77748;SDS011;66938;52.084;5.228;2023-03-14T08:23:15;3.9;;;1.11;;
77748;SDS011;66938;52.084;5.228;2023-03-14T08:24:51;4.91;;;1.11;;
77748;SDS011;66938;52.084;5.228;2023-03-14T08:26:27;5.2;;;0.9;;
77748;SDS011;66938;52.084;5.228;2023-03-14T08:29:40;4.61;;;0.8;;
77748;SDS011;66938;52.084;5.228;2023-03-14T08:31:17;5.11;;;1.11;;
77748;SDS011;66938;52.084;5.228;2023-03-14T08:32:53;4.1;;;0.9;;
77748;SDS011;66938;52.084;5.228;2023-03-14T08:36:10;4.0;;;0.9;;
77748;SDS011;66938;52.084;5.228;2023-03-14T08:37:46;4.41;;;0.9;;
77748;SDS011;66938;52.084;5.228;2023-03-14T08:39:22;4.1;;;0.9;;
77748;SDS011;66938;52.084;5.228;2023-03-14T08:40:59;3.4;;;0.7;;
77748;SDS011;66938;52.084;5.228;2023-03-14T08:44:14;6.8;;;1.11;;
77748;SDS011;66938;52.084;5.228;2023-03-14T08:45:50;4.7;;;0.8;;
77748;SDS011;66938;52.084;5.228;2023-03-14T08:47:26;4.0;;;0.9;;
77748;SDS011;66938;52.084;5.228;2023-03-14T08:50:39;4.7;;;1.11;;
77748;SDS011;66938;52.084;5.228;2023-03-14T08:52:16;5.11;;;0.8;;
77748;SDS011;66938;52.084;5.228;2023-03-14T08:53:52;4.2;;;1.0;;
77748;SDS011;66938;52.084;5.228;2023-03-14T08:57:05;5.4;;;0.9;;
77748;SDS011;66938;52.084;5.228;2023-03-14T08:58:41;4.0;;;0.9;;
77748;SDS011;66938;52.084;5.228;2023-03-14T09:00:18;5.8;;;1.2;;
77748;SDS011;66938;52.084;5.228;2023-03-14T09:01:55;7.5;;;1.3;;
77748;SDS011;66938;52.084;5.228;2023-03-14T09:05:08;5.6;;;1.3;;
77748;SDS011;66938;52.084;5.228;2023-03-14T09:06:44;8.4;;;1.5;;
77748;SDS011;66938;52.084;5.228;2023-03-14T09:08:21;8.31;;;1.3;;
77748;SDS011;66938;52.084;5.228;2023-03-14T09:11:33;12.3;;;1.6;;
77748;SDS011;66938;52.084;5.228;2023-03-14T09:13:09;12.4;;;2.31;;
77748;SDS011;66938;52.084;5.228;2023-03-14T09:14:45;10.8;;;2.21;;
77748;SDS011;66938;52.084;5.228;2023-03-14T09:17:57;13.8;;;2.6;;
77748;SDS011;66938;52.084;5.228;2023-03-14T09:19:33;10.4;;;1.9;;
77748;SDS011;66938;52.084;5.228;2023-03-14T09:21:09;12.6;;;2.31;;
77748;SDS011;66938;52.084;5.228;2023-03-14T09:22:46;9.1;;;2.4;;
77748;SDS011;66938;52.084;5.228;2023-03-14T09:25:57;11.6;;;2.5;;
77748;SDS011;66938;52.084;5.228;2023-03-14T09:27:35;12.6;;;2.5;;
77748;SDS011;66938;52.084;5.228;2023-03-14T09:29:11;16.4;;;3.7;;
77748;SDS011;66938;52.084;5.228;2023-03-14T09:32:23;15.3;;;3.7;;
77748;SDS011;66938;52.084;5.228;2023-03-14T09:33:59;16.4;;;3.4;;
77748;SDS011;66938;52.084;5.228;2023-03-14T09:35:35;14.2;;;3.0;;
77748;SDS011;66938;52.084;5.228;2023-03-14T09:38:48;15.7;;;3.3;;
77748;SDS011;66938;52.084;5.228;2023-03-14T09:40:24;14.0;;;2.8;;
77748;SDS011;66938;52.084;5.228;2023-03-14T09:42:10;12.7;;;2.7;;
77748;SDS011;66938;52.084;5.228;2023-03-14T09:43:52;16.5;;;3.4;;
77748;SDS011;66938;52.084;5.228;2023-03-14T09:47:17;13.9;;;3.1;;
77748;SDS011;66938;52.084;5.228;2023-03-14T09:48:54;13.0;;;2.5;;
77748;SDS011;66938;52.084;5.228;2023-03-14T09:50:32;13.2;;;2.8;;
77748;SDS011;66938;52.084;5.228;2023-03-14T09:52:14;14.9;;;3.0;;
77748;SDS011;66938;52.084;5.228;2023-03-14T09:55:31;12.7;;;2.9;;
77748;SDS011;66938;52.084;5.228;2023-03-14T09:57:10;16.11;;;3.7;;
77748;SDS011;66938;52.084;5.228;2023-03-14T09:58:50;16.4;;;3.5;;
77748;SDS011;66938;52.084;5.228;2023-03-14T10:00:30;18.0;;;3.4;;
77748;SDS011;66938;52.084;5.228;2023-03-14T10:03:54;17.3;;;3.2;;
77748;SDS011;66938;52.084;5.228;2023-03-14T10:05:32;15.9;;;3.0;;
77748;SDS011;66938;52.084;5.228;2023-03-14T10:07:08;14.8;;;3.8;;
77748;SDS011;66938;52.084;5.228;2023-03-14T10:08:50;15.4;;;3.3;;
77748;SDS011;66938;52.084;5.228;2023-03-14T10:12:03;12.0;;;3.0;;
77748;SDS011;66938;52.084;5.228;2023-03-14T10:13:46;15.2;;;3.1;;
77748;SDS011;66938;52.084;5.228;2023-03-14T10:15:26;15.1;;;2.9;;
77748;SDS011;66938;52.084;5.228;2023-03-14T10:18:46;15.2;;;3.6;;
77748;SDS011;66938;52.084;5.228;2023-03-14T10:20:26;14.8;;;3.2;;
77748;SDS011;66938;52.084;5.228;2023-03-14T10:22:05;19.61;;;3.4;;
77748;SDS011;66938;52.084;5.228;2023-03-14T10:23:50;19.61;;;3.7;;
77748;SDS011;66938;52.084;5.228;2023-03-14T10:27:10;17.11;;;3.0;;
77748;SDS011;66938;52.084;5.228;2023-03-14T10:29:00;13.0;;;2.9;;
77748;SDS011;66938;52.084;5.228;2023-03-14T10:30:40;15.1;;;2.9;;
77748;SDS011;66938;52.084;5.228;2023-03-14T10:32:20;16.7;;;3.2;;
77748;SDS011;66938;52.084;5.228;2023-03-14T10:34:03;17.11;;;3.2;;
77748;SDS011;66938;52.084;5.228;2023-03-14T10:37:17;18.7;;;3.2;;
77748;SDS011;66938;52.084;5.228;2023-03-14T10:38:57;19.11;;;3.8;;
77748;SDS011;66938;52.084;5.228;2023-03-14T10:40:52;15.5;;;3.3;;
77748;SDS011;66938;52.084;5.228;2023-03-14T10:42:31;18.8;;;3.6;;
77748;SDS011;66938;52.084;5.228;2023-03-14T10:45:51;15.5;;;3.1;;
77748;SDS011;66938;52.084;5.228;2023-03-14T10:47:29;17.91;;;4.1;;
77748;SDS011;66938;52.084;5.228;2023-03-14T10:49:16;17.91;;;3.6;;
77748;SDS011;66938;52.084;5.228;2023-03-14T10:51:03;17.0;;;3.7;;
77748;SDS011;66938;52.084;5.228;2023-03-14T10:52:47;20.8;;;3.9;;
77748;SDS011;66938;52.084;5.228;2023-03-14T10:56:05;22.2;;;4.2;;
77748;SDS011;66938;52.084;5.228;2023-03-14T10:57:42;20.41;;;4.1;;
77748;SDS011;66938;52.084;5.228;2023-03-14T10:59:19;23.6;;;4.5;;
77748;SDS011;66938;52.084;5.228;2023-03-14T11:02:49;19.8;;;3.9;;
77748;SDS011;66938;52.084;5.228;2023-03-14T11:04:45;17.91;;;4.0;;
77748;SDS011;66938;52.084;5.228;2023-03-14T11:06:36;20.3;;;4.0;;
77748;SDS011;66938;52.084;5.228;2023-03-14T11:08:20;20.3;;;4.5;;
77748;SDS011;66938;52.084;5.228;2023-03-14T11:10:08;18.61;;;4.2;;
77748;SDS011;66938;52.084;5.228;2023-03-14T11:11:53;22.4;;;4.2;;
77748;SDS011;66938;52.084;5.228;2023-03-14T11:13:41;22.4;;;4.7;;
77748;SDS011;66938;52.084;5.228;2023-03-14T11:17:11;18.7;;;4.3;;
77748;SDS011;66938;52.084;5.228;2023-03-14T11:19:14;18.41;;;4.1;;
77748;SDS011;66938;52.084;5.228;2023-03-14T11:21:05;19.2;;;4.5;;
77748;SDS011;66938;52.084;5.228;2023-03-14T11:22:49;18.41;;;4.0;;
77748;SDS011;66938;52.084;5.228;2023-03-14T11:24:39;22.1;;;4.61;;
77748;SDS011;66938;52.084;5.228;2023-03-14T11:26:31;21.8;;;4.41;;
77748;SDS011;66938;52.084;5.228;2023-03-14T11:30:00;18.11;;;4.2;;
77748;SDS011;66938;52.084;5.228;2023-03-14T11:31:49;19.61;;;3.7;;
77748;SDS011;66938;52.084;5.228;2023-03-14T11:33:33;20.8;;;4.2;;
77748;SDS011;66938;52.084;5.228;2023-03-14T11:35:29;14.8;;;3.3;;
77748;SDS011;66938;52.084;5.228;2023-03-14T11:37:11;18.8;;;3.8;;
77748;SDS011;66938;52.084;5.228;2023-03-14T11:38:55;16.11;;;3.6;;
77748;SDS011;66938;52.084;5.228;2023-03-14T11:42:12;16.3;;;3.6;;
77748;SDS011;66938;52.084;5.228;2023-03-14T11:43:52;15.3;;;3.3;;
77748;SDS011;66938;52.084;5.228;2023-03-14T11:45:32;14.2;;;3.3;;
77748;SDS011;66938;52.084;5.228;2023-03-14T11:47:14;19.0;;;3.6;;
77748;SDS011;66938;52.084;5.228;2023-03-14T11:50:39;13.9;;;3.2;;
77748;SDS011;66938;52.084;5.228;2023-03-14T11:52:19;13.2;;;3.1;;
77748;SDS011;66938;52.084;5.228;2023-03-14T11:54:04;13.0;;;2.8;;
77748;SDS011;66938;52.084;5.228;2023-03-14T11:55:50;11.9;;;2.7;;
77748;SDS011;66938;52.084;5.228;2023-03-14T11:59:04;15.5;;;2.8;;
77748;SDS011;66938;52.084;5.228;2023-03-14T12:00:45;17.41;;;2.9;;
77748;SDS011;66938;52.084;5.228;2023-03-14T12:02:26;14.9;;;3.1;;
77748;SDS011;66938;52.084;5.228;2023-03-14T12:04:16;10.0;;;2.6;;
77748;SDS011;66938;52.084;5.228;2023-03-14T12:06:09;10.6;;;2.4;;
77748;SDS011;66938;52.084;5.228;2023-03-14T12:10:21;11.2;;;2.7;;
77748;SDS011;66938;52.084;5.228;2023-03-14T12:13:38;12.7;;;2.4;;
77748;SDS011;66938;52.084;5.228;2023-03-14T12:15:18;10.1;;;2.4;;
77748;SDS011;66938;52.084;5.228;2023-03-14T12:16:56;10.4;;;2.6;;
77748;SDS011;66938;52.084;5.228;2023-03-14T12:20:15;9.6;;;2.4;;
77748;SDS011;66938;52.084;5.228;2023-03-14T12:21:56;8.4;;;2.1;;
77748;SDS011;66938;52.084;5.228;2023-03-14T12:23:40;8.31;;;1.9;;
77748;SDS011;66938;52.084;5.228;2023-03-14T12:25:20;8.1;;;1.9;;
77748;SDS011;66938;52.084;5.228;2023-03-14T12:26:59;8.6;;;2.4;;
77748;SDS011;66938;52.084;5.228;2023-03-14T12:30:16;8.9;;;2.21;;
77748;SDS011;66938;52.084;5.228;2023-03-14T12:32:06;9.9;;;2.4;;
77748;SDS011;66938;52.084;5.228;2023-03-14T12:34:00;7.7;;;1.8;;
77748;SDS011;66938;52.084;5.228;2023-03-14T12:35:39;10.5;;;2.7;;
77748;SDS011;66938;52.084;5.228;2023-03-14T12:39:07;9.0;;;2.0;;
77748;SDS011;66938;52.084;5.228;2023-03-14T12:40:56;9.6;;;2.6;;
77748;SDS011;66938;52.084;5.228;2023-03-14T12:42:40;7.5;;;2.21;;
77748;SDS011;66938;52.084;5.228;2023-03-14T12:44:38;8.81;;;1.7;;
77748;SDS011;66938;52.084;5.228;2023-03-14T12:46:24;8.31;;;2.1;;
77748;SDS011;66938;52.084;5.228;2023-03-14T12:48:06;8.31;;;2.1;;
77748;SDS011;66938;52.084;5.228;2023-03-14T12:51:28;7.5;;;1.7;;